Terminal Aerodrome Forecast
Issued by NWS

Home | Current Version | Previous Version | Graphics & Text | Print | Product List | Glossary On
Versions: 1 2 3 4 5 6 7 8 9 10 11 12 13 14 15 16 17 18 19 20 21 22 23 24 25 26 27 28 29 30 31 32 33 34 35 36 37 38 39 40 41 42 43 44 45 46
000
FTUS43 KGRB 231526 AAA
TAFRHI
TAF AMD
KRHI 231526Z 2315/2412 26007KT P6SM SCT025 SCT040
      TEMPO 2315/2317 BKN025 BKN040
     FM231700 25004KT P6SM SKC
     FM240100 21005KT P6SM SCT080
     FM240300 20007KT P6SM BKN080 WS020/26035KT
     FM240600 21009KT P6SM BKN150 WS020/25045KT=

USA.gov is the U.S. government's official web portal to all federal, state and local government web resources and services.